Dubuque Regional Airport
KDBQ : now visible

Airfield :











YOU CAN JOIN US ON...

 
LOGIN :

Register | Disclaimer

   EN    FR    IT 

 









Legend :    VFR   Marginal VFR   IFR   Intensive IFR   Very Intensive IFR
Visi :
Ceiling :
>= 8 km
>= 3000ft
5 to 8 km
1000 to 3000 ft
1500m to 5 km
500 to 1000 ft
800 to 1500m
200 to 500 ft
< 800m
< 200 ft
Symbols :   Thunderstorms  Fog  Heavy snow  Heavy precipitations  Wind > 20 kt







- Airport Elevation : 1077 ft
- IATA code : DBQ


KDBQ - Dubuque Regional

CURRENT METAR :
  • 181853Z 19018G23KT 10SM SCT021 OVC026 28/24 A2979 RMK AO2 SLP079 T02780239

EXPIRED METARs :
  • 181753Z 18014G25KT 10SM BKN019 27/23 A2981 RMK AO2 PK WND 15034/1717 SLP086 60160 T02670228 10267 20200 56016
  • 181653Z 14017G30KT 10SM FEW043 24/22 A2978 RMK AO2 PK WND 13031/1632 RAB32E43 SLP077 P0000 T02440222

TAF KDBQ
Valid from the 18 at 18:00 until the 19 at 18:00 UTC


181740Z 1818/1918 21014G22KT P6SM SCT030
TEMPO 1818/1819 16014G22KT
FM190000 21011KT P6SM SCT030
FM190600 21009KT P6SM SKC WS020/24040KT
FM191200 22009KT P6SM SCT030
KZAU FIR / North America



MET'MAP, your aeronautical weather chart ! - Copyright ORBIFLY December 2007 - Disclaimer

ORBIFLY MET'MAP TEAM :

Programming & Development : Alexandra Zaïnal
Concept & Development : Baudouin d'Aumeries
Co-Development & Prog : Marc-Olivier Méhu
Technical & hardware support : Manuel Goepfert

Contact : metmap@orbifly.com




SOURCES & CREDITS :

   NOAA       Earth
Advisory